createdAt,value
2017-12-30T00:00:32.095Z,99284.01
2017-12-30T00:02:59.607Z,99268.61
2017-12-30T00:05:27.103Z,99289.41
2017-12-30T00:07:54.737Z,99293.84
2017-12-30T00:10:22.289Z,99297.17
2017-12-30T00:12:49.851Z,99312.74
2017-12-30T00:15:17.364Z,99313.84
2017-12-30T00:17:44.874Z,99319.72
2017-12-30T00:20:12.408Z,99321.81
2017-12-30T00:22:40.006Z,99325.90
2017-12-30T00:25:07.522Z,99320.56
2017-12-30T00:27:35.065Z,99319.33
2017-12-30T00:30:02.651Z,99325.73
2017-12-30T00:32:30.164Z,99319.23
2017-12-30T00:34:57.733Z,99327.19
2017-12-30T00:37:25.301Z,99327.81
2017-12-30T00:39:52.871Z,99333.78
2017-12-30T00:42:20.425Z,99329.14
2017-12-30T00:44:47.979Z,99331.63
2017-12-30T00:47:15.652Z,99337.72
2017-12-30T00:49:43.206Z,99323.13
2017-12-30T00:52:10.757Z,99358.81
2017-12-30T00:54:38.361Z,99340.56
2017-12-30T00:57:05.959Z,99337.41
2017-12-30T00:59:33.509Z,99333.49
2017-12-30T01:02:01.101Z,99341.06
2017-12-30T01:04:28.676Z,99348.46
2017-12-30T01:06:56.240Z,99338.21
2017-12-30T01:09:23.757Z,99339.27
2017-12-30T01:11:51.328Z,99329.09
2017-12-30T01:14:18.877Z,99331.56
2017-12-30T01:16:46.433Z,99325.59
2017-12-30T01:19:14.052Z,99326.07
2017-12-30T01:21:41.610Z,99323.05
2017-12-30T01:24:09.205Z,99322.56
2017-12-30T01:26:36.719Z,99333.00
2017-12-30T01:29:04.241Z,99336.31
2017-12-30T01:31:31.828Z,99336.81
2017-12-30T01:33:59.347Z,99330.22
2017-12-30T01:36:26.932Z,99322.24
2017-12-30T01:38:54.551Z,99326.73
2017-12-30T01:41:22.098Z,99331.05
2017-12-30T01:43:49.680Z,99323.27
2017-12-30T01:46:17.184Z,99322.42
2017-12-30T01:48:56.505Z,99323.17
2017-12-30T01:51:24.136Z,99321.19
2017-12-30T01:53:51.698Z,99328.67
2017-12-30T01:56:19.252Z,99331.25
2017-12-30T01:58:46.762Z,99324.67
2017-12-30T02:01:14.313Z,99331.13
2017-12-30T02:03:41.947Z,99327.19
2017-12-30T02:06:09.514Z,99322.83
2017-12-30T02:08:37.155Z,99329.36
2017-12-30T02:11:04.755Z,99326.97
2017-12-30T02:13:32.279Z,99322.73
2017-12-30T02:15:59.778Z,99320.73
2017-12-30T02:18:27.338Z,99311.20
2017-12-30T02:20:54.882Z,99311.47
2017-12-30T02:23:22.438Z,99297.31
2017-12-30T02:25:50.022Z,99300.03
2017-12-30T02:28:17.588Z,99307.66
2017-12-30T02:30:45.141Z,99299.15
2017-12-30T02:33:12.709Z,99300.61
2017-12-30T02:35:40.227Z,99302.86
2017-12-30T02:38:07.821Z,99305.09
2017-12-30T02:40:35.333Z,99297.91
2017-12-30T02:43:02.885Z,99296.20
2017-12-30T02:45:30.452Z,99297.35
2017-12-30T02:47:57.974Z,99296.31
2017-12-30T02:50:25.569Z,99297.09
2017-12-30T02:52:53.117Z,99292.91
2017-12-30T02:55:20.670Z,99289.88
2017-12-30T02:57:48.241Z,99296.00
2017-12-30T03:00:15.814Z,99295.00
2017-12-30T03:02:43.405Z,99302.16
2017-12-30T03:05:10.976Z,99288.19
2017-12-30T03:07:38.525Z,99288.11
2017-12-30T03:10:06.131Z,99287.56
2017-12-30T03:12:33.723Z,99282.72
2017-12-30T03:15:01.243Z,99282.30
2017-12-30T03:17:28.841Z,99297.41
2017-12-30T03:19:56.346Z,99306.72
2017-12-30T03:22:23.895Z,99301.78
2017-12-30T03:24:51.430Z,99307.35
2017-12-30T03:27:19.053Z,99313.93
2017-12-30T03:29:46.663Z,99313.61
2017-12-30T03:32:14.273Z,99299.45
2017-12-30T03:34:41.834Z,99302.55
2017-12-30T03:37:09.344Z,99301.44
2017-12-30T03:39:36.917Z,99300.56
2017-12-30T03:42:04.461Z,99301.38
2017-12-30T03:44:32.085Z,99300.13
2017-12-30T03:46:59.640Z,99298.75
2017-12-30T03:49:27.224Z,99297.34
2017-12-30T03:51:54.743Z,99302.08
2017-12-30T03:54:22.259Z,99311.20
2017-12-30T03:56:49.849Z,99323.23
2017-12-30T03:59:17.405Z,99320.76
2017-12-30T04:01:44.997Z,99311.51
2017-12-30T04:04:12.536Z,99319.80
2017-12-30T04:06:40.101Z,99312.82
2017-12-30T04:09:07.666Z,99315.70
2017-12-30T04:11:35.254Z,99317.89
2017-12-30T04:14:02.842Z,99311.58
2017-12-30T04:16:30.447Z,99314.75
2017-12-30T04:18:57.954Z,99310.91
2017-12-30T04:21:25.539Z,99298.53
2017-12-30T04:23:53.128Z,99293.91
2017-12-30T04:26:20.693Z,99276.91
2017-12-30T04:28:48.314Z,99270.03
2017-12-30T04:31:15.870Z,99262.16
2017-12-30T04:33:43.388Z,99271.20
2017-12-30T04:36:10.980Z,99281.14
2017-12-30T04:38:38.478Z,99274.92
2017-12-30T04:41:05.995Z,99277.85
2017-12-30T04:43:33.556Z,99272.80
2017-12-30T04:46:01.099Z,99270.52
2017-12-30T04:48:28.628Z,99268.66
2017-12-30T04:50:56.148Z,99274.61
2017-12-30T04:53:23.711Z,99268.81
2017-12-30T04:55:51.262Z,99273.00
2017-12-30T04:58:18.813Z,99268.77
2017-12-30T05:00:46.379Z,99264.93
2017-12-30T05:03:13.992Z,99252.95
2017-12-30T05:05:41.538Z,99247.89
2017-12-30T05:08:09.267Z,99240.56
2017-12-30T05:10:36.812Z,99240.99
2017-12-30T05:13:04.381Z,99237.89
2017-12-30T05:15:31.930Z,99247.64
2017-12-30T05:17:59.482Z,99262.37
2017-12-30T05:20:27.090Z,99267.70
2017-12-30T05:22:54.645Z,99272.20
2017-12-30T05:25:22.191Z,99256.44
2017-12-30T05:27:49.738Z,99254.97
2017-12-30T05:30:17.285Z,99253.03
2017-12-30T05:32:44.883Z,99250.41
2017-12-30T05:35:12.396Z,99244.53
2017-12-30T05:37:39.906Z,99252.06
2017-12-30T05:40:07.474Z,99248.72
2017-12-30T05:42:35.022Z,99241.50
2017-12-30T05:45:02.656Z,99242.02
2017-12-30T05:47:30.213Z,99237.66
2017-12-30T05:49:57.802Z,99225.98
2017-12-30T05:52:25.311Z,99220.64
2017-12-30T05:54:52.844Z,99218.64
2017-12-30T05:57:20.387Z,99217.50
2017-12-30T05:59:47.995Z,99216.56
2017-12-30T06:02:15.528Z,99216.97
2017-12-30T06:04:43.050Z,99218.74
2017-12-30T06:07:10.636Z,99223.37
2017-12-30T06:09:38.183Z,99221.77
2017-12-30T06:12:05.708Z,99232.10
2017-12-30T06:14:33.318Z,99223.66
2017-12-30T06:17:00.865Z,99223.48
2017-12-30T06:19:28.456Z,99208.41
2017-12-30T06:21:56.150Z,99202.87
2017-12-30T06:24:23.660Z,99191.02
2017-12-30T06:26:51.239Z,99189.62
2017-12-30T06:29:18.845Z,99182.34
2017-12-30T06:31:46.403Z,99181.95
2017-12-30T06:34:13.945Z,99184.98
2017-12-30T06:36:41.539Z,99185.95
2017-12-30T06:39:09.084Z,99176.36
2017-12-30T06:41:36.649Z,99165.87
2017-12-30T06:44:04.194Z,99160.81
2017-12-30T06:46:31.831Z,99164.66
2017-12-30T06:48:59.384Z,99162.27
2017-12-30T06:51:26.985Z,99157.70
2017-12-30T06:53:54.520Z,99150.88
2017-12-30T06:56:22.041Z,99141.68
2017-12-30T06:58:49.631Z,99131.91
2017-12-30T07:01:17.140Z,99130.45
2017-12-30T07:03:44.677Z,99137.51
2017-12-30T07:06:12.286Z,99114.34
2017-12-30T07:08:39.874Z,99117.47
2017-12-30T07:11:07.605Z,99107.76
2017-12-30T07:13:35.149Z,99092.45
2017-12-30T07:16:02.697Z,99085.58
2017-12-30T07:18:30.281Z,99085.02
2017-12-30T07:20:57.824Z,99078.53
2017-12-30T07:23:25.376Z,99067.69
2017-12-30T07:25:52.974Z,99065.95
2017-12-30T07:28:20.521Z,99053.17
2017-12-30T07:30:48.195Z,99053.09
2017-12-30T07:33:15.743Z,99048.70
2017-12-30T07:35:43.601Z,99033.66
2017-12-30T07:38:11.098Z,99019.88
2017-12-30T07:40:38.688Z,99010.31
2017-12-30T07:43:06.255Z,98995.97
2017-12-30T07:45:33.904Z,99004.90
2017-12-30T07:48:01.704Z,99003.64
2017-12-30T07:50:29.256Z,99002.45
2017-12-30T07:52:56.784Z,98987.16
2017-12-30T07:55:24.427Z,98979.05
2017-12-30T07:57:52.002Z,98977.54
2017-12-30T08:00:19.549Z,98963.71
2017-12-30T08:02:47.145Z,98950.02
2017-12-30T08:05:14.680Z,98953.61
2017-12-30T08:07:42.189Z,98948.77
2017-12-30T08:10:09.755Z,98932.63
2017-12-30T08:12:37.289Z,98906.73
2017-12-30T08:15:04.833Z,98890.48
2017-12-30T08:17:32.418Z,98869.53
2017-12-30T08:19:59.932Z,98860.16
2017-12-30T08:22:27.466Z,98847.58
2017-12-30T08:24:55.009Z,98839.95
2017-12-30T08:27:22.570Z,98841.89
2017-12-30T08:29:50.178Z,98841.95
2017-12-30T08:32:17.737Z,98829.08
2017-12-30T08:34:45.272Z,98822.31
2017-12-30T08:37:13.075Z,98827.98
2017-12-30T08:39:40.604Z,98813.50
2017-12-30T08:42:08.118Z,98798.60
2017-12-30T08:44:35.792Z,98791.21
2017-12-30T08:47:03.311Z,98768.33
2017-12-30T08:49:30.855Z,98762.22
2017-12-30T08:51:58.410Z,98769.41
2017-12-30T08:54:25.964Z,98765.77
2017-12-30T08:56:53.521Z,98762.48
2017-12-30T08:59:21.083Z,98754.17
2017-12-30T09:01:48.643Z,98761.50
2017-12-30T09:04:16.209Z,98737.45
2017-12-30T09:06:43.779Z,98752.08
2017-12-30T09:09:11.308Z,98738.44
2017-12-30T09:11:38.857Z,98745.04
2017-12-30T09:14:06.409Z,98729.98
2017-12-30T09:16:34.036Z,98728.68
2017-12-30T09:19:01.584Z,98727.98
2017-12-30T09:21:29.147Z,98725.18
2017-12-30T09:23:56.799Z,98718.17
2017-12-30T09:26:24.315Z,98720.89
2017-12-30T09:28:51.847Z,98710.60
2017-12-30T09:31:19.473Z,98701.77
2017-12-30T09:33:47.028Z,98682.17
2017-12-30T09:36:14.597Z,98700.67
2017-12-30T09:38:42.282Z,98702.14
2017-12-30T09:41:09.840Z,98684.16
2017-12-30T09:43:37.419Z,98687.02
2017-12-30T09:46:05.044Z,98676.79
2017-12-30T09:48:32.613Z,98670.77
2017-12-30T09:51:00.176Z,98657.06
2017-12-30T09:53:27.764Z,98652.67
2017-12-30T09:55:55.305Z,98648.27
2017-12-30T09:58:22.829Z,98644.06
2017-12-30T10:00:50.379Z,98645.72
2017-12-30T10:03:18.085Z,98648.65
2017-12-30T10:05:45.607Z,98639.97
2017-12-30T10:08:13.197Z,98643.85
2017-12-30T10:10:40.767Z,98634.55
2017-12-30T10:13:08.291Z,98635.63
2017-12-30T10:15:35.875Z,98628.09
2017-12-30T10:18:03.478Z,98627.31
2017-12-30T10:20:31.023Z,98611.78
2017-12-30T10:22:58.715Z,98621.62
2017-12-30T10:25:26.290Z,98615.65
2017-12-30T10:27:54.171Z,98612.39
2017-12-30T10:30:21.796Z,98610.61
2017-12-30T10:32:49.391Z,98603.64
2017-12-30T10:35:16.985Z,98585.79
2017-12-30T10:37:44.551Z,98583.78
2017-12-30T10:40:12.343Z,98573.81
2017-12-30T10:42:40.031Z,98576.53
2017-12-30T10:45:07.694Z,98573.93
2017-12-30T10:47:35.335Z,98570.56
2017-12-30T10:50:03.145Z,98572.48
2017-12-30T10:52:30.711Z,98570.38
2017-12-30T10:54:58.321Z,98563.98
2017-12-30T10:57:25.847Z,98568.93
2017-12-30T10:59:53.378Z,98571.11
2017-12-30T11:02:21.032Z,98571.17
2017-12-30T11:04:48.585Z,98573.38
2017-12-30T11:07:16.132Z,98562.70
2017-12-30T11:09:43.708Z,98565.55
2017-12-30T11:12:11.553Z,98570.46
2017-12-30T11:14:39.114Z,98545.07
2017-12-30T11:17:06.963Z,98566.73
2017-12-30T11:19:34.634Z,98569.27
2017-12-30T11:22:02.209Z,98561.57
2017-12-30T11:24:29.810Z,98568.94
2017-12-30T11:26:57.346Z,98566.75
2017-12-30T11:29:24.882Z,98570.50
2017-12-30T11:31:52.489Z,98549.08
2017-12-30T11:34:20.009Z,98561.70
2017-12-30T11:36:47.597Z,98572.11
2017-12-30T11:39:15.182Z,98568.91
2017-12-30T11:41:42.741Z,98554.98
2017-12-30T11:44:10.330Z,98562.95
2017-12-30T11:46:37.931Z,98558.28
2017-12-30T11:49:05.513Z,98568.53
2017-12-30T11:51:33.067Z,98573.53
2017-12-30T11:54:00.681Z,98578.55
2017-12-30T11:56:28.283Z,98565.73
2017-12-30T11:58:55.836Z,98567.06
2017-12-30T12:01:23.464Z,98571.55
2017-12-30T12:03:50.992Z,98574.52
2017-12-30T12:06:18.553Z,98578.06
2017-12-30T12:08:47.050Z,98577.62
2017-12-30T12:11:14.709Z,98593.98
2017-12-30T12:13:42.354Z,98590.61
2017-12-30T12:16:09.937Z,98595.48
2017-12-30T12:18:37.506Z,98593.42
2017-12-30T12:21:05.133Z,98591.46
2017-12-30T12:23:32.800Z,98589.22
2017-12-30T12:26:00.382Z,98590.05
2017-12-30T12:28:28.010Z,98597.95
2017-12-30T12:30:55.639Z,98596.22
2017-12-30T12:33:23.197Z,98602.26
2017-12-30T12:35:50.939Z,98601.20
2017-12-30T12:38:18.502Z,98610.59
2017-12-30T12:40:46.072Z,98628.25
2017-12-30T12:43:13.659Z,98644.19
2017-12-30T12:45:41.226Z,98642.92
2017-12-30T12:48:08.777Z,98638.70
2017-12-30T12:50:36.401Z,98629.68
2017-12-30T12:53:03.959Z,98649.17
2017-12-30T12:55:31.488Z,98645.83
2017-12-30T12:57:59.307Z,98643.13
2017-12-30T13:00:26.885Z,98648.70
2017-12-30T13:02:54.426Z,98645.59
2017-12-30T13:05:21.995Z,98656.45
2017-12-30T13:07:49.516Z,98655.41
2017-12-30T13:10:17.035Z,98667.00
2017-12-30T13:12:44.642Z,98675.66
2017-12-30T13:15:12.217Z,98669.61
2017-12-30T13:17:39.814Z,98668.28
2017-12-30T13:20:07.392Z,98695.44
2017-12-30T13:22:34.907Z,98704.46
2017-12-30T13:25:02.477Z,98705.10
2017-12-30T13:27:30.095Z,98705.92
2017-12-30T13:29:57.625Z,98719.41
2017-12-30T13:32:25.139Z,98737.22
2017-12-30T13:34:52.761Z,98726.02
2017-12-30T13:37:20.335Z,98739.36
2017-12-30T13:39:50.280Z,98748.79
2017-12-30T13:42:17.865Z,98752.50
2017-12-30T13:44:45.393Z,98757.13
2017-12-30T13:47:13.234Z,98758.45
2017-12-30T13:49:40.790Z,98768.33
2017-12-30T13:52:08.311Z,98752.51
2017-12-30T13:54:35.885Z,98751.67
2017-12-30T13:57:03.428Z,98761.50
2017-12-30T13:59:31.200Z,98779.39
2017-12-30T14:01:58.838Z,98781.66
2017-12-30T14:04:26.410Z,98788.28
2017-12-30T14:06:53.966Z,98789.72
2017-12-30T14:09:21.557Z,98797.33
2017-12-30T14:11:49.149Z,98802.74
2017-12-30T14:14:16.700Z,98798.00
2017-12-30T14:16:44.288Z,98803.02
2017-12-30T14:19:12.094Z,98824.66
2017-12-30T14:21:39.638Z,98837.64
2017-12-30T14:24:07.297Z,98857.64
2017-12-30T14:26:34.877Z,98861.76
2017-12-30T14:29:02.488Z,98855.16
2017-12-30T14:31:30.085Z,98843.71
2017-12-30T14:33:57.595Z,98862.05
2017-12-30T14:36:25.107Z,98867.23
2017-12-30T14:38:52.715Z,98863.38
2017-12-30T14:41:20.284Z,98884.02
2017-12-30T14:43:47.808Z,98888.43
2017-12-30T14:46:15.493Z,98878.55
2017-12-30T14:48:43.276Z,98890.09
2017-12-30T14:51:10.805Z,98884.75
2017-12-30T14:53:38.371Z,98898.28
2017-12-30T14:56:05.912Z,98895.39
2017-12-30T14:58:33.490Z,98897.94
2017-12-30T15:01:00.999Z,98924.33
2017-12-30T15:03:28.516Z,98916.00
2017-12-30T15:05:56.120Z,98918.02
2017-12-30T15:08:23.715Z,98941.39
2017-12-30T15:10:51.265Z,98950.06
2017-12-30T15:13:18.851Z,98958.06
2017-12-30T15:15:46.398Z,98952.33
2017-12-30T15:18:13.915Z,98949.59
2017-12-30T15:20:41.672Z,98962.04
2017-12-30T15:23:09.233Z,98967.46
2017-12-30T15:25:36.824Z,98968.75
2017-12-30T15:28:04.437Z,98987.05
2017-12-30T15:30:32.224Z,98990.33
2017-12-30T15:32:59.812Z,98982.47
2017-12-30T15:35:27.390Z,98989.99
2017-12-30T15:37:54.933Z,98997.52
2017-12-30T15:40:22.494Z,98993.25
2017-12-30T15:42:50.295Z,98991.75
2017-12-30T15:45:17.875Z,99002.77
2017-12-30T15:47:45.402Z,99005.39
2017-12-30T15:50:12.943Z,99027.39
2017-12-30T15:52:40.522Z,99028.49
2017-12-30T15:55:08.117Z,99030.97
2017-12-30T15:57:35.936Z,99030.34
2017-12-30T16:00:03.584Z,99047.26
2017-12-30T16:02:31.127Z,99052.67
2017-12-30T16:04:58.742Z,99057.72
2017-12-30T16:07:26.298Z,99056.42
2017-12-30T16:09:53.875Z,99053.89
2017-12-30T16:12:21.403Z,99054.49
2017-12-30T16:14:48.951Z,99071.81
2017-12-30T16:17:16.517Z,99074.66
2017-12-30T16:19:44.135Z,99087.62
2017-12-30T16:22:11.742Z,99086.66
2017-12-30T16:24:39.448Z,99095.16
2017-12-30T16:27:07.026Z,99096.53
2017-12-30T16:29:34.662Z,99096.20
2017-12-30T16:32:02.225Z,99104.23
2017-12-30T16:34:29.740Z,99107.30
2017-12-30T16:36:57.457Z,99101.33
2017-12-30T16:39:25.017Z,99100.91
2017-12-30T16:41:52.540Z,99118.71
2017-12-30T16:44:20.116Z,99122.41
2017-12-30T16:46:47.701Z,99120.73
2017-12-30T16:49:15.273Z,99132.75
2017-12-30T16:51:42.869Z,99137.39
2017-12-30T16:54:10.392Z,99157.30
2017-12-30T16:56:37.972Z,99146.01
2017-12-30T16:59:05.513Z,99149.51
2017-12-30T17:01:33.069Z,99149.09
2017-12-30T17:04:00.654Z,99154.20
2017-12-30T17:06:28.286Z,99166.18
2017-12-30T17:08:55.898Z,99173.33
2017-12-30T17:11:24.510Z,99173.94
2017-12-30T17:13:52.088Z,99169.99
2017-12-30T17:16:19.616Z,99173.28
2017-12-30T17:18:47.234Z,99174.74
2017-12-30T17:21:14.979Z,99189.18
2017-12-30T17:23:42.739Z,99186.22
2017-12-30T17:26:10.407Z,99196.59
2017-12-30T17:28:37.941Z,99189.27
2017-12-30T17:31:05.535Z,99176.45
2017-12-30T17:33:33.235Z,99200.47
2017-12-30T17:36:00.747Z,99213.94
2017-12-30T17:38:28.321Z,99199.52
2017-12-30T17:40:55.885Z,99194.37
2017-12-30T17:43:23.523Z,99205.28
2017-12-30T17:45:51.202Z,99215.89
2017-12-30T17:48:18.754Z,99222.53
2017-12-30T17:50:46.337Z,99223.09
2017-12-30T17:53:13.872Z,99208.20
2017-12-30T17:55:41.449Z,99224.02
2017-12-30T17:58:09.004Z,99218.41
2017-12-30T18:00:36.511Z,99213.26
2017-12-30T18:03:04.260Z,99216.15
2017-12-30T18:05:31.859Z,99206.14
2017-12-30T18:08:00.287Z,99215.39
2017-12-30T18:10:27.855Z,99211.55
2017-12-30T18:12:55.461Z,99223.27
2017-12-30T18:15:23.308Z,99223.13
2017-12-30T18:17:50.877Z,99229.95
2017-12-30T18:20:18.400Z,99236.62
2017-12-30T18:22:46.010Z,99244.22
2017-12-30T18:25:13.595Z,99255.30
2017-12-30T18:27:41.182Z,99258.33
2017-12-30T18:30:08.726Z,99243.27
2017-12-30T18:32:36.416Z,99256.39
2017-12-30T18:35:04.068Z,99262.92
2017-12-30T18:37:31.617Z,99274.78
2017-12-30T18:39:59.464Z,99295.20
2017-12-30T18:42:27.081Z,99286.61
2017-12-30T18:44:55.291Z,99285.58
2017-12-30T18:47:22.800Z,99296.51
2017-12-30T18:49:50.765Z,99303.32
2017-12-30T18:52:18.357Z,99305.38
2017-12-30T18:54:45.879Z,99321.92
2017-12-30T18:57:13.690Z,99321.16
2017-12-30T18:59:41.256Z,99328.00
2017-12-30T19:02:08.769Z,99331.73
2017-12-30T19:04:36.434Z,99334.28
2017-12-30T19:07:04.015Z,99337.20
2017-12-30T19:09:31.774Z,99336.79
2017-12-30T19:11:59.389Z,99335.52
2017-12-30T19:14:27.104Z,99342.81
2017-12-30T19:16:54.636Z,99353.55
2017-12-30T19:19:22.208Z,99364.17
2017-12-30T19:21:49.793Z,99373.24
2017-12-30T19:24:17.514Z,99368.13
2017-12-30T19:26:45.076Z,99375.86
2017-12-30T19:29:12.683Z,99362.94
2017-12-30T19:31:40.309Z,99371.17
2017-12-30T19:34:07.839Z,99396.59
2017-12-30T19:36:35.575Z,99399.65
2017-12-30T19:39:03.244Z,99409.38
2017-12-30T19:41:30.928Z,99405.83
2017-12-30T19:43:58.469Z,99411.52
2017-12-30T19:46:26.033Z,99420.95
2017-12-30T19:48:53.851Z,99411.42
2017-12-30T19:51:21.623Z,99408.16
2017-12-30T19:53:49.530Z,99409.94
2017-12-30T19:56:17.105Z,99412.91
2017-12-30T19:58:44.640Z,99409.09
2017-12-30T20:01:12.226Z,99423.89
2017-12-30T20:03:39.726Z,99414.63
2017-12-30T20:06:07.271Z,99428.58
2017-12-30T20:08:35.026Z,99442.36
2017-12-30T20:11:02.583Z,99471.39
2017-12-30T20:13:30.397Z,99456.91
2017-12-30T20:15:57.974Z,99452.16
2017-12-30T20:18:25.642Z,99458.80
2017-12-30T20:20:53.162Z,99464.40
2017-12-30T20:23:20.836Z,99470.28
2017-12-30T20:25:48.408Z,99459.48
2017-12-30T20:28:16.095Z,99464.16
2017-12-30T20:30:43.673Z,99462.75
2017-12-30T20:33:11.289Z,99473.08
2017-12-30T20:35:39.074Z,99483.92
2017-12-30T20:38:06.695Z,99500.19
2017-12-30T20:40:34.214Z,99495.11
2017-12-30T20:43:01.724Z,99504.53
2017-12-30T20:45:29.460Z,99506.69
2017-12-30T20:47:57.005Z,99524.52
2017-12-30T20:50:24.502Z,99524.70
2017-12-30T20:55:19.083Z,99526.81
2017-12-30T20:57:46.601Z,99532.97
2017-12-30T21:00:14.297Z,99545.48
2017-12-30T21:02:42.358Z,99552.98
2017-12-30T21:05:10.087Z,99557.54
2017-12-30T21:07:37.819Z,99554.80
2017-12-30T21:10:05.373Z,99564.86
2017-12-30T21:12:33.063Z,99568.95
2017-12-30T21:15:00.570Z,99560.23
2017-12-30T21:17:28.322Z,99553.69
2017-12-30T21:19:55.999Z,99562.91
2017-12-30T21:22:23.790Z,99551.92
2017-12-30T21:24:51.322Z,99564.54
2017-12-30T21:27:19.137Z,99561.53
2017-12-30T21:29:46.704Z,99561.02
2017-12-30T21:32:14.287Z,99555.01
2017-12-30T21:34:41.798Z,99564.72
2017-12-30T21:37:09.392Z,99570.92
2017-12-30T21:39:36.958Z,99586.05
2017-12-30T21:42:04.492Z,99584.91
2017-12-30T21:44:32.041Z,99584.50
2017-12-30T21:46:59.641Z,99585.05
2017-12-30T21:49:27.293Z,99585.61
2017-12-30T21:51:54.866Z,99590.48
2017-12-30T21:54:22.382Z,99595.39
2017-12-30T21:56:49.954Z,99593.96
2017-12-30T21:59:17.536Z,99600.86
2017-12-30T22:01:45.249Z,99603.98
2017-12-30T22:04:12.780Z,99602.23
2017-12-30T22:06:40.317Z,99613.82
2017-12-30T22:09:07.966Z,99621.58
2017-12-30T22:11:35.569Z,99627.09
2017-12-30T22:14:03.083Z,99636.62
2017-12-30T22:16:30.701Z,99644.08
2017-12-30T22:18:58.246Z,99655.70
2017-12-30T22:21:25.750Z,99656.27
2017-12-30T22:23:53.332Z,99662.81
2017-12-30T22:26:20.931Z,99664.99
2017-12-30T22:28:48.485Z,99671.31
2017-12-30T22:31:16.046Z,99670.64
2017-12-30T22:33:44.015Z,99663.20
2017-12-30T22:36:11.572Z,99667.17
2017-12-30T22:38:39.362Z,99668.67
2017-12-30T22:41:06.917Z,99665.43
2017-12-30T22:43:34.482Z,99668.39
2017-12-30T22:46:02.020Z,99672.56
2017-12-30T22:48:29.532Z,99674.61
2017-12-30T22:50:57.111Z,99671.68
2017-12-30T22:53:24.666Z,99672.59
2017-12-30T22:55:52.261Z,99674.69
2017-12-30T22:58:19.808Z,99682.34
2017-12-30T23:00:52.924Z,99685.48
2017-12-30T23:03:20.470Z,99675.08
2017-12-30T23:05:48.026Z,99678.55
2017-12-30T23:08:15.582Z,99683.45
2017-12-30T23:10:43.127Z,99687.27
2017-12-30T23:13:10.808Z,99701.30
2017-12-30T23:15:38.383Z,99692.91
2017-12-30T23:18:05.894Z,99699.45
2017-12-30T23:20:33.474Z,99704.47
2017-12-30T23:23:01.209Z,99698.37
2017-12-30T23:25:28.988Z,99695.59
2017-12-30T23:27:56.759Z,99692.45
2017-12-30T23:30:24.322Z,99696.34
2017-12-30T23:32:52.117Z,99704.50
2017-12-30T23:35:19.794Z,99718.31
2017-12-30T23:37:47.347Z,99720.45
2017-12-30T23:40:14.917Z,99721.84
2017-12-30T23:42:42.526Z,99718.47
2017-12-30T23:45:10.069Z,99705.72
2017-12-30T23:47:37.628Z,99711.08
2017-12-30T23:50:05.226Z,99700.94
2017-12-30T23:52:32.780Z,99703.19
2017-12-30T23:55:00.566Z,99704.03
2017-12-30T23:57:28.867Z,99701.28
2017-12-30T23:59:56.410Z,99696.23
